.
WxDataArchive / Data Records for 2011-01-04
2011-01-03 January 2011 2011-01-05

Data Records for Tuesday, 04 January 2011

Time	Temp	Chill	HIndex	Humid	Dewpt	 Wind 	HiWind	WindDir	Rain 	Barom 
-----	----	-----	------	-----	-----	------	------	-------	-----	----- 
00:00	32.4	32.4	32.4	58	19.3	1	4	225	0.00	30.012 
00:05	32.4	32.4	32.4	58	19.3	1	5	270	0.00	30.012 
00:10	32.4	32.4	32.4	57	18.9	2	5	248	0.00	30.012 
00:15	32.5	32.5	32.5	57	19.0	2	7	248	0.00	30.000 
00:20	32.5	32.5	32.5	57	19.0	2	6	248	0.00	30.000 
00:25	32.5	32.5	32.5	57	19.0	1	4	248	0.00	30.000 
00:30	32.5	32.5	32.5	57	19.0	1	5	248	0.00	29.991 
00:35	32.5	32.5	32.5	57	19.0	1	3	248	0.00	29.991 
00:40	32.5	32.5	32.5	57	19.0	1	4	248	0.00	29.991 
00:45	32.5	32.5	32.5	57	19.0	1	4	248	0.00	29.987 
00:50	32.5	32.5	32.5	56	18.6	1	5	248	0.00	29.987 
00:55	32.5	32.5	32.5	56	18.6	1	4	270	0.00	29.987 
01:00	32.5	32.5	32.5	56	18.6	1	4	225	0.00	29.978 
01:05	32.5	32.5	32.5	56	18.6	1	3	248	0.00	29.978 
01:10	32.5	32.5	32.5	56	18.6	1	4	248	0.00	29.978 
01:15	32.5	32.5	32.5	55	18.2	1	4	248	0.00	29.973 
01:20	32.5	32.5	32.5	55	18.2	1	4	248	0.00	29.973 
01:25	32.5	32.5	32.5	55	18.2	1	4	248	0.00	29.973 
01:30	32.7	32.7	32.7	55	18.3	1	7	248	0.00	29.969 
01:35	32.5	32.5	32.5	55	18.2	1	3	270	0.00	29.969 
01:40	32.5	32.5	32.5	55	18.2	1	3	270	0.00	29.969 
01:45	32.5	32.5	32.5	55	18.2	1	5	248	0.00	29.966 
01:50	32.4	32.4	32.4	55	18.1	1	5	248	0.00	29.966 
01:55	32.4	32.4	32.4	55	18.1	1	3	225	0.00	29.966 
02:00	32.4	32.4	32.4	55	18.1	1	4	248	0.00	29.964 
02:05	32.4	32.4	32.4	55	18.1	1	3	248	0.00	29.964 
02:10	32.4	32.4	32.4	55	18.1	1	3	248	0.00	29.964 
02:15	32.4	32.4	32.4	55	18.1	1	5	248	0.00	29.961 
02:20	32.4	32.4	32.4	55	18.1	1	4	248	0.00	29.961 
02:25	32.4	32.4	32.4	55	18.1	1	4	248	0.00	29.961 
02:30	32.2	32.2	32.2	55	17.9	1	4	248	0.00	29.957 
02:35	32.4	32.4	32.4	55	18.1	2	6	248	0.00	29.957 
02:40	32.4	32.4	32.4	55	18.1	1	5	248	0.00	29.957 
02:45	32.2	32.2	32.2	55	17.9	1	4	248	0.00	29.958 
02:50	32.2	32.2	32.2	55	17.9	1	4	248	0.00	29.958 
02:55	32.2	32.2	32.2	55	17.9	1	3	225	0.00	29.958 
03:00	32.2	32.2	32.2	55	17.9	2	9	248	0.00	29.958 
03:05	32.4	32.4	32.4	55	18.1	2	7	225	0.00	29.958 
03:10	32.4	32.4	32.4	55	18.1	1	6	248	0.00	29.958 
03:15	32.4	32.4	32.4	55	18.1	2	7	248	0.00	29.956 
03:20	32.4	32.4	32.4	55	18.1	2	5	270	0.00	29.956 
03:25	32.2	32.2	32.2	55	17.9	2	9	248	0.00	29.956 
03:30	32.2	32.2	32.2	55	17.9	1	6	225	0.00	29.949 
03:35	32.1	32.1	32.1	55	17.8	2	7	248	0.00	29.949 
03:40	32.1	32.1	32.1	55	17.8	1	5	248	0.00	29.949 
03:45	32.1	32.1	32.1	56	18.2	2	7	248	0.00	29.942 
03:50	31.9	31.9	31.9	56	18.0	2	6	248	0.00	29.942 
03:55	31.9	31.9	31.9	56	18.0	1	4	248	0.00	29.942 
04:00	31.8	31.8	31.8	57	18.3	1	4	248	0.00	29.939 
04:05	31.8	31.8	31.8	57	18.3	1	5	248	0.00	29.939 
04:10	31.8	31.8	31.8	57	18.3	1	4	270	0.00	29.939 
04:15	31.6	31.6	31.6	57	18.1	1	5	270	0.00	29.928 
04:20	31.6	31.6	31.6	58	18.5	1	5	248	0.00	29.928 
04:25	31.6	31.6	31.6	58	18.5	1	3	248	0.00	29.928 
04:30	31.5	31.5	31.5	58	18.4	1	4	248	0.00	29.924 
04:35	31.5	31.5	31.5	58	18.4	1	5	248	0.00	29.924 
04:40	31.5	31.5	31.5	58	18.4	1	4	248	0.00	29.924 
04:45	31.5	31.5	31.5	58	18.4	1	3	248	0.00	29.914 
04:50	31.3	31.3	31.3	58	18.3	1	4	225	0.00	29.914 
04:55	31.3	31.3	31.3	59	18.7	1	4	248	0.00	29.914 
05:00	31.2	31.2	31.2	59	18.6	1	5	248	0.00	29.912 
05:05	31.0	31.0	31.0	59	18.4	2	7	248	0.00	29.912 
05:10	30.9	30.9	30.9	59	18.3	2	5	248	0.00	29.912 
05:15	30.7	30.7	30.7	60	18.5	2	6	248	0.00	29.914 
05:20	30.4	30.4	30.4	60	18.2	1	3	248	0.00	29.914 
05:25	30.3	30.3	30.3	61	18.5	1	4	248	0.00	29.914 
05:30	30.1	30.1	30.1	62	18.7	1	4	248	0.00	29.914 
05:35	30.0	30.0	30.0	62	18.6	1	4	248	0.00	29.914 
05:40	30.0	30.0	30.0	62	18.6	1	4	248	0.00	29.914 
05:45	29.8	29.8	29.8	62	18.4	2	5	248	0.00	29.916 
05:50	29.8	29.8	29.8	63	18.8	2	4	248	0.00	29.916 
05:55	29.7	29.7	29.7	63	18.7	1	4	270	0.00	29.916 
06:00	29.7	29.7	29.7	63	18.7	1	4	248	0.00	29.914 
06:05	29.5	29.5	29.5	64	18.8	1	4	248	0.00	29.914 
06:10	29.4	29.4	29.4	64	18.8	2	5	248	0.00	29.914 
06:15	29.4	29.4	29.4	65	19.1	1	4	248	0.00	29.917 
06:20	29.3	29.3	29.3	65	19.0	2	5	248	0.00	29.917 
06:25	29.1	29.1	29.1	65	18.8	1	5	248	0.00	29.917 
06:30	29.1	29.1	29.1	66	19.2	1	5	248	0.00	29.915 
06:35	29.1	29.1	29.1	66	19.2	2	7	248	0.00	29.915 
06:40	29.1	29.1	29.1	67	19.5	2	5	248	0.00	29.915 
06:45	29.1	29.1	29.1	67	19.5	1	5	248	0.00	29.917 
06:50	29.0	29.0	29.0	67	19.4	1	3	248	0.00	29.917 
06:55	28.8	28.8	28.8	68	19.6	1	4	248	0.00	29.917 
07:00	28.7	28.7	28.7	68	19.5	1	4	248	0.00	29.922 
07:05	28.7	28.7	28.7	69	19.8	1	4	248	0.00	29.922 
07:10	28.7	28.7	28.7	69	19.8	1	4	270	0.00	29.922 
07:15	28.5	28.5	28.5	69	19.6	2	5	248	0.00	29.925 
07:20	28.5	28.5	28.5	70	20.0	2	4	248	0.00	29.925 
07:25	28.4	28.4	28.4	70	19.9	2	4	248	0.00	29.925 
07:30	28.4	28.4	28.4	70	19.9	2	5	248	0.00	29.931 
07:35	28.2	28.2	28.2	71	20.0	2	5	248	0.00	29.931 
07:40	28.2	28.2	28.2	72	20.4	2	5	248	0.00	29.931 
07:45	28.2	28.2	28.2	72	20.4	2	4	248	0.00	29.932 
07:50	28.2	28.2	28.2	73	20.7	2	5	248	0.00	29.932 
07:55	28.1	28.1	28.1	73	20.6	1	4	248	0.00	29.932 
08:00	28.1	28.1	28.1	73	20.6	2	6	248	0.00	29.928 
08:05	27.9	27.9	27.9	73	20.4	1	4	248	0.00	29.928 
08:10	27.9	27.9	27.9	74	20.7	1	5	248	0.00	29.928 
08:15	27.9	27.9	27.9	74	20.7	1	5	248	0.00	29.926 
08:20	27.8	27.8	27.8	75	20.9	1	4	270	0.00	29.926 
08:25	27.8	27.8	27.8	75	20.9	1	4	225	0.00	29.926 
08:30	27.8	27.8	27.8	75	20.9	2	5	270	0.00	29.926 
08:35	27.9	27.9	27.9	75	21.0	1	3	248	0.00	29.926 
08:40	27.9	27.9	27.9	76	21.3	1	3	248	0.00	29.926 
08:45	27.9	27.9	27.9	76	21.3	1	4	225	0.00	29.929 
08:50	28.1	28.1	28.1	76	21.5	2	7	248	0.00	29.929 
08:55	28.2	28.2	28.2	76	21.6	1	4	225	0.00	29.929 
09:00	28.4	28.4	28.4	76	21.8	1	4	248	0.00	29.929 
09:05	28.4	28.4	28.4	76	21.8	2	5	248	0.00	29.929 
09:10	28.7	28.7	28.7	76	22.1	2	4	248	0.00	29.929 
09:15	28.8	28.8	28.8	75	21.9	1	3	248	0.00	29.932 
09:20	29.0	29.0	29.0	75	22.1	1	3	248	0.00	29.932 
09:25	29.3	29.3	29.3	75	22.4	2	6	225	0.00	29.932 
09:30	29.5	29.5	29.5	74	22.3	2	5	225	0.00	29.933 
09:35	29.8	29.8	29.8	74	22.5	2	5	248	0.00	29.933 
09:40	29.8	29.8	29.8	73	22.2	3	7	248	0.00	29.933 
09:45	30.0	30.0	30.0	73	22.4	3	7	248	0.00	29.941 
09:50	29.8	29.8	29.8	73	22.2	3	11	248	0.00	29.941 
09:55	29.8	29.8	29.8	73	22.2	2	7	248	0.00	29.941 
10:00	29.8	29.8	29.8	73	22.2	3	7	248	0.00	29.939 
10:05	30.1	30.1	30.1	73	22.5	2	5	248	0.00	29.939 
10:10	30.3	30.3	30.3	72	22.4	2	5	248	0.00	29.939 
10:15	30.4	30.4	30.4	71	22.1	3	6	248	0.00	29.944 
10:20	30.6	30.6	30.6	70	22.0	2	4	248	0.00	29.944 
10:25	30.9	30.9	30.9	70	22.3	2	4	248	0.00	29.944 
10:30	31.2	31.2	31.2	68	21.9	2	6	248	0.00	29.943 
10:35	31.3	31.3	31.3	67	21.6	3	7	270	0.00	29.943 
10:40	31.3	31.3	31.3	67	21.6	3	6	248	0.00	29.943 
10:45	31.5	31.5	31.5	66	21.5	3	9	270	0.00	29.944 
10:50	31.5	31.5	31.5	66	21.5	3	6	270	0.00	29.944 
10:55	31.5	31.5	31.5	66	21.5	3	6	270	0.00	29.944 
11:00	31.5	31.5	31.5	67	21.8	3	6	270	0.00	29.946 
11:05	31.6	31.6	31.6	67	21.9	3	7	270	0.00	29.946 
11:10	31.5	27.5	31.5	67	21.8	4	11	270	0.00	29.946 
11:15	31.5	31.5	31.5	68	22.2	3	6	270	0.00	29.946 
11:20	31.8	27.8	31.8	67	22.1	4	11	270	0.00	29.946 
11:25	31.9	31.9	31.9	67	22.2	3	8	248	0.00	29.946 
11:30	32.2	32.2	32.2	66	22.1	3	10	248	0.00	29.943 
11:35	32.2	27.3	32.2	62	20.7	5	13	248	0.00	29.943 
11:40	32.4	28.5	32.4	62	20.9	4	13	270	0.00	29.943 
11:45	32.5	28.7	32.5	57	19.0	4	9	270	0.00	29.940 
11:50	32.2	27.3	32.2	57	18.7	5	12	270	0.00	29.940 
11:55	32.4	28.5	32.4	57	18.9	4	9	270	0.00	29.940 
12:00	32.7	28.9	32.7	56	18.8	4	8	270	0.00	29.943 
12:05	32.4	28.5	32.4	54	17.6	4	7	270	0.00	29.943 
12:10	32.2	27.3	32.2	52	16.6	5	12	270	0.00	29.943 
12:15	32.1	27.2	32.1	52	16.5	5	12	270	0.00	29.936 
12:20	32.2	28.3	32.2	53	17.0	4	10	270	0.00	29.936 
12:25	32.2	28.3	32.2	53	17.0	4	11	270	0.00	29.936 
12:30	32.2	28.3	32.2	54	17.4	4	7	270	0.00	29.937 
12:35	32.4	28.5	32.4	53	17.2	4	14	270	0.00	29.937 
12:40	32.1	27.2	32.1	51	16.0	5	12	270	0.00	29.937 
12:45	32.2	28.3	32.2	52	16.6	4	13	270	0.00	29.930 
12:50	32.4	28.5	32.4	50	15.9	4	13	270	0.00	29.930 
12:55	32.5	28.7	32.5	46	14.0	4	9	270	0.00	29.930 
13:00	32.7	28.9	32.7	44	13.2	4	11	270	0.00	29.926 
13:05	32.1	26.3	32.1	44	12.7	6	14	270	0.00	29.926 
13:10	31.6	25.8	31.6	43	11.7	6	12	270	0.00	29.926 
13:15	31.3	27.3	31.3	44	11.9	4	10	270	0.00	29.929 
13:20	31.8	27.8	31.8	45	12.9	4	7	270	0.00	29.929 
13:25	32.4	32.4	32.4	45	13.5	3	6	270	0.00	29.929 
13:30	32.5	32.5	32.5	46	14.0	3	9	270	0.00	29.918 
13:35	32.9	32.9	32.9	43	12.9	3	7	270	0.00	29.918 
13:40	32.4	32.4	32.4	42	11.9	3	6	270	0.00	29.918 
13:45	32.4	28.5	32.4	43	12.4	4	7	270	0.00	29.922 
13:50	32.7	32.7	32.7	43	12.7	2	6	270	0.00	29.922 
13:55	32.5	28.7	32.5	43	12.5	4	13	270	0.00	29.922 
14:00	32.1	32.1	32.1	43	12.2	3	6	270	0.00	29.930 
14:05	32.5	32.5	32.5	41	11.4	3	6	270	0.00	29.930 
14:10	32.2	28.3	32.2	40	10.6	4	7	270	0.00	29.930 
14:15	32.4	28.5	32.4	39	10.2	4	9	270	0.00	29.929 
14:20	32.1	28.2	32.1	40	10.5	4	7	270	0.00	29.929 
14:25	32.2	28.3	32.2	40	10.6	4	7	270	0.00	29.929 
14:30	32.2	32.2	32.2	39	10.1	3	6	248	0.00	29.932 
14:35	31.9	28.0	31.9	40	10.4	4	10	315	0.00	29.932 
14:40	31.8	27.8	31.8	40	10.3	4	6	270	0.00	29.932 
14:45	32.1	32.1	32.1	41	11.1	3	10	270	0.00	29.938 
14:50	32.4	28.5	32.4	40	10.8	4	11	270	0.00	29.938 
14:55	32.1	28.2	32.1	39	10.0	4	9	292	0.00	29.938 
15:00	31.9	28.0	31.9	39	9.8	4	9	270	0.00	29.946 
15:05	31.6	27.6	31.6	39	9.5	4	8	270	0.00	29.946 
15:10	31.6	27.6	31.6	40	10.1	4	6	270	0.00	29.946 
15:15	31.6	27.6	31.6	40	10.1	4	7	270	0.00	29.948 
15:20	31.6	31.6	31.6	41	10.6	3	5	270	0.00	29.948 
15:25	31.8	31.8	31.8	41	10.8	3	9	270	0.00	29.948 
15:30	31.8	31.8	31.8	41	10.8	3	6	270	0.00	29.956 
15:35	31.5	27.5	31.5	41	10.5	4	9	270	0.00	29.956 
15:40	31.0	31.0	31.0	41	10.1	3	7	270	0.00	29.956 
15:45	31.0	31.0	31.0	43	11.2	3	6	225	0.00	29.963 
15:50	31.2	31.2	31.2	44	11.9	2	5	270	0.00	29.963 
15:55	31.6	31.6	31.6	43	11.7	2	5	270	0.00	29.963 
16:00	31.5	27.5	31.5	42	11.1	4	12	270	0.00	29.965 
16:05	31.0	31.0	31.0	42	10.6	3	9	248	0.00	29.965 
16:10	30.7	26.6	30.7	43	10.9	4	9	270	0.00	29.965 
16:15	30.6	26.5	30.6	42	10.3	4	10	270	0.00	29.976 
16:20	30.3	30.3	30.3	43	10.5	3	6	270	0.00	29.976 
16:25	30.0	30.0	30.0	44	10.8	3	6	270	0.00	29.976 
16:30	29.7	29.7	29.7	43	10.0	3	6	270	0.00	29.988 
16:35	29.5	29.5	29.5	44	10.3	3	7	248	0.00	29.988 
16:40	29.3	29.3	29.3	45	10.6	3	10	270	0.00	29.988 
16:45	29.1	24.7	29.1	46	10.9	4	10	270	0.00	29.995 
16:50	29.0	29.0	29.0	47	11.3	3	7	248	0.00	29.995 
16:55	29.0	29.0	29.0	47	11.3	3	6	248	0.00	29.995 
17:00	28.8	28.8	28.8	47	11.1	2	5	270	0.00	30.001 
17:05	28.5	28.5	28.5	48	11.3	3	7	315	0.00	30.001 
17:10	28.2	28.2	28.2	49	11.5	3	5	270	0.00	30.001 
17:15	27.9	27.9	27.9	50	11.7	2	4	248	0.00	30.009 
17:20	27.8	27.8	27.8	50	11.6	2	5	248	0.00	30.009 
17:25	27.5	27.5	27.5	51	11.8	2	6	270	0.00	30.009 
17:30	27.3	27.3	27.3	51	11.6	2	4	248	0.00	30.016 
17:35	27.2	27.2	27.2	52	11.9	3	7	248	0.00	30.016 
17:40	26.9	26.9	26.9	53	12.1	2	5	270	0.00	30.016 
17:45	26.7	26.7	26.7	53	11.9	2	5	225	0.00	30.024 
17:50	26.6	26.6	26.6	53	11.8	2	4	225	0.00	30.024 
17:55	26.4	26.4	26.4	54	12.0	2	4	225	0.00	30.024 
18:00	26.3	26.3	26.3	54	11.9	1	3	225	0.00	30.032 
18:05	26.0	26.0	26.0	54	11.7	1	3	225	0.00	30.032 
18:10	26.0	26.0	26.0	54	11.7	1	3	225	0.00	30.032 
18:15	26.0	26.0	26.0	54	11.7	2	4	248	0.00	30.037 
18:20	26.0	26.0	26.0	54	11.7	2	5	270	0.00	30.037 
18:25	25.8	25.8	25.8	55	11.9	1	3	248	0.00	30.037 
18:30	25.8	25.8	25.8	55	11.9	2	3	248	0.00	30.046 
18:35	25.8	25.8	25.8	55	11.9	2	3	248	0.00	30.046 
18:40	25.7	25.7	25.7	56	12.2	1	4	248	0.00	30.046 
18:45	25.7	25.7	25.7	56	12.2	1	3	248	0.00	30.049 
18:50	25.7	25.7	25.7	56	12.2	1	2	248	0.00	30.049 
18:55	25.6	25.6	25.6	57	12.5	1	5	248	0.00	30.049 
19:00	25.6	25.6	25.6	57	12.5	1	3	248	0.00	30.051 
19:05	25.4	25.4	25.4	58	12.7	1	3	248	0.00	30.051 
19:10	25.4	25.4	25.4	58	12.7	1	3	248	0.00	30.051 
19:15	25.3	25.3	25.3	58	12.6	1	4	248	0.00	30.058 
19:20	25.3	25.3	25.3	58	12.6	1	4	248	0.00	30.058 
19:25	25.3	25.3	25.3	60	13.4	1	3	338	0.00	30.058 
19:30	25.1	25.1	25.1	61	13.6	1	3	315	0.00	30.064 
19:35	25.0	25.0	25.0	61	13.5	1	3	248	0.00	30.064 
19:40	25.0	25.0	25.0	62	13.8	1	4	292	0.00	30.064 
19:45	24.8	24.8	24.8	61	13.3	2	5	248	0.00	30.064 
19:50	24.8	24.8	24.8	61	13.3	1	3	248	0.00	30.064 
19:55	24.8	24.8	24.8	61	13.3	1	3	248	0.00	30.064 
20:00	24.8	24.8	24.8	61	13.3	1	3	248	0.00	30.065 
20:05	24.7	24.7	24.7	61	13.2	2	4	248	0.00	30.065 
20:10	24.7	24.7	24.7	61	13.2	1	3	248	0.00	30.065 
20:15	24.5	24.5	24.5	61	13.0	1	4	248	0.00	30.068 
20:20	24.4	24.4	24.4	61	12.9	1	3	248	0.00	30.068 
20:25	24.4	24.4	24.4	62	13.3	1	3	248	0.00	30.068 
20:30	24.2	24.2	24.2	62	13.1	1	2	248	0.00	30.069 
20:35	24.1	24.1	24.1	62	13.0	1	3	248	0.00	30.069 
20:40	23.9	23.9	23.9	62	12.8	0	3	248	0.00	30.069 
20:45	23.8	23.8	23.8	62	12.7	1	2	248	0.00	30.070 
20:50	23.5	23.5	23.5	63	12.8	1	3	248	0.00	30.070 
20:55	23.3	23.3	23.3	63	12.6	1	5	248	0.00	30.070 
21:00	23.3	23.3	23.3	64	13.0	0	2	225	0.00	30.078 
21:05	23.2	23.2	23.2	64	12.9	1	4	270	0.00	30.078 
21:10	23.0	23.0	23.0	64	12.7	1	3	270	0.00	30.078 
21:15	22.9	22.9	22.9	64	12.6	2	6	270	0.00	30.077 
21:20	22.5	22.5	22.5	64	12.2	2	4	248	0.00	30.077 
21:25	22.4	22.4	22.4	65	12.4	1	4	248	0.00	30.077 
21:30	22.2	22.2	22.2	65	12.3	1	5	248	0.00	30.081 
21:35	22.1	22.1	22.1	65	12.2	2	5	248	0.00	30.081 
21:40	21.9	21.9	21.9	66	12.3	1	4	248	0.00	30.081 
21:45	21.9	21.9	21.9	66	12.3	1	4	225	0.00	30.084 
21:50	21.8	21.8	21.8	66	12.2	2	5	248	0.00	30.084 
21:55	21.6	21.6	21.6	67	12.4	2	4	270	0.00	30.084 
22:00	21.6	21.6	21.6	67	12.4	1	5	248	0.00	30.089 
22:05	21.4	21.4	21.4	67	12.2	1	4	248	0.00	30.089 
22:10	21.1	21.1	21.1	67	11.9	2	5	248	0.00	30.089 
22:15	21.0	21.0	21.0	68	12.1	1	3	248	0.00	30.094 
22:20	20.6	20.6	20.6	68	11.7	1	3	248	0.00	30.094 
22:25	20.5	20.5	20.5	68	11.6	1	3	248	0.00	30.094 
22:30	20.2	20.2	20.2	69	11.7	1	5	270	0.00	30.086 
22:35	20.0	20.0	20.0	69	11.5	1	3	248	0.00	30.086 
22:40	19.9	19.9	19.9	69	11.4	1	3	248	0.00	30.086 
22:45	19.7	19.7	19.7	70	11.5	1	4	248	0.00	30.085 
22:50	19.5	19.5	19.5	70	11.3	1	2	248	0.00	30.085 
22:55	19.4	19.4	19.4	70	11.2	1	3	248	0.00	30.085 
23:00	19.4	19.4	19.4	71	11.6	1	2	248	0.00	30.093 
23:05	19.2	19.2	19.2	71	11.4	1	2	248	0.00	30.093 
23:10	19.1	19.1	19.1	71	11.3	1	3	248	0.00	30.093 
23:15	18.9	18.9	18.9	71	11.1	1	2	248	0.00	30.097 
23:20	18.9	18.9	18.9	72	11.4	1	5	248	0.00	30.097 
23:25	18.8	18.8	18.8	72	11.3	0	2	248	0.00	30.097 
23:30	18.6	18.6	18.6	72	11.1	0	1	248	0.00	30.096 
23:35	18.4	18.4	18.4	72	10.9	0	2	248	0.00	30.096 
23:40	18.3	18.3	18.3	73	11.1	0	2	248	0.00	30.096 
23:45	18.3	18.3	18.3	73	11.1	0	2	248	0.00	30.097 
23:50	18.1	18.1	18.1	73	10.9	0	0	---	0.00	30.097 
23:55	18.0	18.0	18.0	73	10.8	0	0	---	0.00	30.097 

CoCoRaHS
IN-AL-39
A2 Web Hosting
Creative Commons License
GoDaddy
search engine by freefind advanced

loaded 2018-11-20 09:19:42 • last modified 2010-11-18 10:43:29
Privacy PolicyDisclaimer
• wx.awcolley.com is powered by PmWiki v.2002016 •
• all content (unless otherwise noted) © 2018 A W Colley